Terminal Aerodrome Forecast
Issued by NWS

Home | Current Version | Previous Version | Text Only | Print | Product List | Glossary On
Versions: 1 2 3 4 5 6 7 8 9 10 11 12 13 14 15 16 17 18 19 20 21 22 23 24
000
FTUS43 KLSX 240100 AAA
TAFCPS
TAF AMD
KCPS 240107Z 2401/2424 18008KT 3SM BR OVC008
      TEMPO 2401/2403 1SM BR BKN005
     FM240800 26014KT 4SM -RA BR OVC008
     FM241200 28020G30KT P6SM OVC015
     FM242200 27014G24KT P6SM SCT015 OVC040=

USA.gov is the U.S. government's official web portal to all federal, state and local government web resources and services.